createdAt,value
2023-05-24T00:00:46.964Z,10.48
2023-05-24T00:03:15.635Z,9.85
2023-05-24T00:05:43.668Z,10.32
2023-05-24T00:08:10.932Z,9.75
2023-05-24T00:10:38.240Z,10.40
2023-05-24T00:13:06.498Z,8.13
2023-05-24T00:15:33.976Z,10.05
2023-05-24T00:18:01.564Z,10.32
2023-05-24T00:20:29.041Z,8.57
2023-05-24T00:22:56.452Z,10.52
2023-05-24T00:25:23.653Z,11.63
2023-05-24T00:27:51.129Z,10.07
2023-05-24T00:30:18.320Z,11.60
2023-05-24T00:32:45.751Z,9.60
2023-05-24T00:35:12.991Z,15.52
2023-05-24T00:37:42.054Z,9.68
2023-05-24T00:40:10.119Z,12.70
2023-05-24T00:42:37.609Z,8.75
2023-05-24T00:45:05.239Z,9.77
2023-05-24T00:47:34.126Z,10.90
2023-05-24T00:50:01.473Z,10.23
2023-05-24T00:52:29.767Z,14.50
2023-05-24T00:54:57.064Z,9.48
2023-05-24T00:57:25.226Z,12.32
2023-05-24T00:59:53.234Z,9.07
2023-05-24T01:02:20.934Z,11.70
2023-05-24T01:04:49.197Z,10.50
2023-05-24T01:07:26.981Z,9.20
2023-05-24T01:10:25.995Z,8.13
2023-05-24T01:13:20.921Z,10.07
2023-05-24T01:15:50.966Z,7.90
2023-05-24T01:18:26.248Z,10.85
2023-05-24T01:21:17.492Z,12.98
2023-05-24T01:23:56.212Z,9.50
2023-05-24T01:26:26.518Z,10.10
2023-05-24T01:28:54.843Z,10.23
2023-05-24T01:31:23.317Z,10.30
2023-05-24T01:33:50.696Z,10.63
2023-05-24T01:36:17.879Z,10.95
2023-05-24T01:38:46.078Z,10.52
2023-05-24T01:42:06.592Z,12.65
2023-05-24T01:44:43.184Z,10.73
2023-05-24T01:47:10.516Z,10.07
2023-05-24T01:49:45.604Z,11.18
2023-05-24T01:52:15.160Z,11.00
2023-05-24T01:54:47.848Z,15.52
2023-05-24T01:57:15.794Z,8.77
2023-05-24T01:59:44.614Z,8.32
2023-05-24T02:02:12.530Z,12.43
2023-05-24T02:04:39.949Z,8.73
2023-05-24T02:07:07.111Z,10.35
2023-05-24T02:09:34.282Z,11.63
2023-05-24T02:12:02.569Z,12.13
2023-05-24T02:14:29.948Z,17.27
2023-05-24T02:16:59.386Z,7.88
2023-05-24T02:19:27.081Z,11.88
2023-05-24T02:21:54.730Z,11.10
2023-05-24T02:24:22.090Z,14.80
2023-05-24T02:26:49.308Z,8.40
2023-05-24T02:29:16.712Z,14.07
2023-05-24T02:31:44.096Z,12.52
2023-05-24T02:34:11.237Z,16.02
2023-05-24T02:36:38.526Z,11.63
2023-05-24T02:39:06.343Z,12.70
2023-05-24T02:41:33.428Z,11.35
2023-05-24T02:44:00.789Z,14.32
2023-05-24T02:46:27.997Z,12.30
2023-05-24T02:48:55.331Z,11.63
2023-05-24T02:51:22.484Z,10.30
2023-05-24T02:53:49.993Z,11.80
2023-05-24T02:56:17.544Z,12.18
2023-05-24T02:58:45.266Z,10.90
2023-05-24T03:01:12.944Z,10.95
2023-05-24T03:03:40.565Z,11.68
2023-05-24T03:06:08.446Z,11.43
2023-05-24T03:08:37.511Z,15.55
2023-05-24T03:11:04.720Z,12.18
2023-05-24T03:13:32.040Z,11.93
2023-05-24T03:15:59.235Z,12.82
2023-05-24T03:18:26.504Z,10.55
2023-05-24T03:20:54.051Z,9.63
2023-05-24T03:23:21.110Z,13.05
2023-05-24T03:25:48.385Z,11.63
2023-05-24T03:28:15.965Z,11.07
2023-05-24T03:30:43.422Z,11.52
2023-05-24T03:33:10.897Z,13.77
2023-05-24T03:35:37.993Z,12.48
2023-05-24T03:38:05.188Z,10.68
2023-05-24T03:40:33.896Z,11.82
2023-05-24T03:43:02.395Z,11.75
2023-05-24T03:45:39.043Z,12.70
2023-05-24T03:48:07.501Z,12.32
2023-05-24T03:50:35.564Z,11.77
2023-05-24T03:53:02.810Z,9.48
2023-05-24T03:55:30.010Z,11.15
2023-05-24T03:57:57.141Z,11.30
2023-05-24T04:00:24.349Z,12.05
2023-05-24T04:02:51.594Z,9.43
2023-05-24T04:05:18.953Z,11.18
2023-05-24T04:07:46.607Z,12.45
2023-05-24T04:10:13.883Z,10.75
2023-05-24T04:12:42.229Z,13.63
2023-05-24T04:15:10.114Z,10.60
2023-05-24T04:17:37.490Z,9.70
2023-05-24T04:20:06.320Z,9.32
2023-05-24T04:22:52.264Z,9.98
2023-05-24T04:25:19.865Z,12.48
2023-05-24T04:27:48.937Z,10.70
2023-05-24T04:30:36.921Z,11.02
2023-05-24T04:33:04.266Z,9.65
2023-05-24T04:35:31.421Z,9.25
2023-05-24T04:37:59.985Z,10.68
2023-05-24T04:40:27.529Z,11.38
2023-05-24T04:43:13.217Z,9.73
2023-05-24T04:45:40.383Z,17.20
2023-05-24T04:48:07.579Z,18.77
2023-05-24T04:50:35.901Z,18.05
2023-05-24T04:53:04.125Z,27.92
2023-05-24T04:55:31.284Z,17.38
2023-05-24T04:58:01.640Z,16.23
2023-05-24T05:00:28.918Z,10.05
2023-05-24T05:02:56.326Z,14.18
2023-05-24T05:05:23.635Z,9.82
2023-05-24T05:07:50.761Z,12.60
2023-05-24T05:10:18.055Z,11.57
2023-05-24T05:12:45.181Z,11.30
2023-05-24T05:15:13.720Z,7.15
2023-05-24T05:17:41.013Z,9.50
2023-05-24T05:20:08.949Z,8.77
2023-05-24T05:22:36.148Z,7.82
2023-05-24T05:25:03.950Z,11.65
2023-05-24T05:27:51.169Z,10.40
2023-05-24T05:30:18.534Z,11.63
2023-05-24T05:33:06.423Z,11.38
2023-05-24T05:35:33.657Z,7.60
2023-05-24T05:38:01.103Z,7.53
2023-05-24T05:40:28.580Z,10.52
2023-05-24T05:42:55.769Z,11.90
2023-05-24T05:45:22.925Z,9.98
2023-05-24T05:47:50.196Z,11.10
2023-05-24T05:50:17.774Z,7.65
2023-05-24T05:52:44.904Z,10.05
2023-05-24T05:55:30.786Z,7.32
2023-05-24T05:58:16.648Z,12.18
2023-05-24T06:00:44.205Z,12.25
2023-05-24T06:03:11.717Z,10.35
2023-05-24T06:05:39.075Z,14.32
2023-05-24T06:08:06.255Z,9.35
2023-05-24T06:10:53.119Z,16.25
2023-05-24T06:13:39.056Z,10.75
2023-05-24T06:16:08.892Z,10.85
2023-05-24T06:18:36.893Z,10.45
2023-05-24T06:21:04.288Z,10.07
2023-05-24T06:23:32.350Z,9.77
2023-05-24T06:26:01.650Z,8.38
2023-05-24T06:28:28.904Z,10.13
2023-05-24T06:31:14.980Z,8.02
2023-05-24T06:33:46.793Z,10.07
2023-05-24T06:36:16.615Z,9.77
2023-05-24T06:38:43.877Z,17.58
2023-05-24T06:41:11.301Z,12.25
2023-05-24T06:43:38.859Z,8.93
2023-05-24T06:46:06.788Z,10.98
2023-05-24T06:48:33.981Z,10.82
2023-05-24T06:51:01.745Z,14.55
2023-05-24T06:53:29.162Z,12.70
2023-05-24T06:55:57.695Z,20.65
2023-05-24T06:58:25.306Z,8.40
2023-05-24T07:00:53.363Z,8.32
2023-05-24T07:03:21.321Z,11.55
2023-05-24T07:05:48.588Z,8.95
2023-05-24T07:08:16.151Z,12.40
2023-05-24T07:11:02.508Z,10.40
2023-05-24T07:13:29.769Z,8.65
2023-05-24T07:15:56.937Z,8.75
2023-05-24T07:18:24.073Z,10.48
2023-05-24T07:20:51.429Z,15.23
2023-05-24T07:23:18.624Z,12.65
2023-05-24T07:25:45.856Z,12.30
2023-05-24T07:28:15.469Z,11.07
2023-05-24T07:30:42.691Z,15.27
2023-05-24T07:33:09.886Z,10.63
2023-05-24T07:35:37.245Z,10.25
2023-05-24T07:38:04.492Z,10.90
2023-05-24T07:40:32.290Z,11.80
2023-05-24T07:42:59.617Z,12.75
2023-05-24T07:45:26.950Z,18.10
2023-05-24T07:47:56.693Z,12.98
2023-05-24T07:50:24.284Z,14.30
2023-05-24T07:52:51.581Z,10.25
2023-05-24T07:55:18.778Z,14.23
2023-05-24T07:57:47.808Z,13.45
2023-05-24T08:00:16.516Z,11.68
2023-05-24T08:02:46.629Z,10.00
2023-05-24T08:05:14.910Z,14.10
2023-05-24T08:07:42.356Z,14.73
2023-05-24T08:10:13.844Z,15.75
2023-05-24T08:12:42.151Z,11.80
2023-05-24T08:15:09.732Z,11.82
2023-05-24T08:17:38.850Z,10.93
2023-05-24T08:20:07.453Z,11.27
2023-05-24T08:22:34.734Z,14.48
2023-05-24T08:25:01.948Z,12.45
2023-05-24T08:27:31.977Z,11.27
2023-05-24T08:29:59.363Z,18.85
2023-05-24T08:32:27.079Z,13.05
2023-05-24T08:35:03.529Z,9.00
2023-05-24T08:37:34.285Z,11.15
2023-05-24T08:40:01.757Z,12.02
2023-05-24T08:42:31.801Z,12.48
2023-05-24T08:45:05.744Z,10.68
2023-05-24T08:47:33.615Z,11.40
2023-05-24T08:50:01.540Z,10.18
2023-05-24T08:52:33.181Z,9.60
2023-05-24T08:55:01.149Z,10.68
2023-05-24T08:57:28.784Z,8.85
2023-05-24T08:59:56.432Z,12.55
2023-05-24T09:02:24.338Z,8.27
2023-05-24T09:04:53.451Z,10.30
2023-05-24T09:07:25.733Z,10.85
2023-05-24T09:10:05.438Z,7.60
2023-05-24T09:12:37.993Z,11.07
2023-05-24T09:15:07.458Z,10.88
2023-05-24T09:17:39.027Z,9.90
2023-05-24T09:20:10.885Z,7.40
2023-05-24T09:22:41.749Z,11.23
2023-05-24T09:25:11.313Z,7.78
2023-05-24T09:27:39.164Z,6.53
2023-05-24T09:30:13.125Z,10.60
2023-05-24T09:32:41.435Z,7.80
2023-05-24T09:35:10.761Z,8.00
2023-05-24T09:37:41.439Z,8.60
2023-05-24T09:40:19.744Z,6.05
2023-05-24T09:42:49.095Z,7.00
2023-05-24T09:45:17.692Z,7.45
2023-05-24T09:47:45.477Z,7.45
2023-05-24T09:50:14.954Z,7.13
2023-05-24T09:52:42.972Z,10.80
2023-05-24T09:55:18.318Z,8.18
2023-05-24T09:57:50.178Z,8.30
2023-05-24T10:00:23.300Z,9.52
2023-05-24T10:03:08.100Z,9.25
2023-05-24T10:05:37.570Z,8.20
2023-05-24T10:08:05.314Z,7.18
2023-05-24T10:10:33.825Z,9.55
2023-05-24T10:13:02.029Z,10.77
2023-05-24T10:15:30.909Z,8.88
2023-05-24T10:18:00.703Z,7.80
2023-05-24T10:20:28.681Z,7.18
2023-05-24T10:23:04.056Z,6.40
2023-05-24T10:25:35.095Z,6.82
2023-05-24T10:28:07.044Z,9.90
2023-05-24T10:30:50.264Z,15.13
2023-05-24T10:35:46.389Z,8.60
2023-05-24T10:38:13.808Z,9.20
2023-05-24T10:40:44.438Z,6.90
2023-05-24T10:43:11.810Z,8.38
2023-05-24T10:45:41.264Z,5.50
2023-05-24T10:48:10.671Z,11.25
2023-05-24T10:50:37.947Z,9.75
2023-05-24T10:53:16.032Z,10.30
2023-05-24T10:55:59.769Z,17.85
2023-05-24T10:58:59.722Z,15.27
2023-05-24T11:01:32.538Z,22.67
2023-05-24T11:04:11.369Z,7.10
2023-05-24T11:07:02.050Z,10.98
2023-05-24T11:09:30.045Z,17.35
2023-05-24T11:12:07.862Z,30.40
2023-05-24T11:14:39.655Z,14.40
2023-05-24T11:17:10.809Z,7.95
2023-05-24T11:19:45.257Z,12.30
2023-05-24T11:22:15.197Z,6.40
2023-05-24T11:24:42.977Z,11.60
2023-05-24T11:27:12.896Z,10.70
2023-05-24T11:29:48.339Z,7.32
2023-05-24T11:32:18.529Z,10.82
2023-05-24T11:34:49.842Z,12.82
2023-05-24T11:37:18.456Z,16.38
2023-05-24T11:39:51.315Z,20.85
2023-05-24T11:42:19.700Z,13.23
2023-05-24T11:44:49.935Z,13.40
2023-05-24T11:47:17.130Z,8.25
2023-05-24T11:49:44.361Z,11.95
2023-05-24T11:52:11.618Z,9.85
2023-05-24T11:54:39.039Z,9.00
2023-05-24T11:57:06.519Z,14.98
2023-05-24T11:59:37.773Z,11.27
2023-05-24T12:02:06.878Z,8.52
2023-05-24T12:04:35.115Z,9.80
2023-05-24T12:07:03.632Z,14.18
2023-05-24T12:09:30.999Z,10.30
2023-05-24T12:11:59.069Z,10.90
2023-05-24T12:14:31.365Z,11.60
2023-05-24T12:17:02.419Z,25.95
2023-05-24T12:19:36.864Z,10.45
2023-05-24T12:22:09.727Z,12.75
2023-05-24T12:24:38.513Z,11.88
2023-05-24T12:27:08.199Z,7.43
2023-05-24T12:29:41.992Z,12.25
2023-05-24T12:32:13.921Z,8.48
2023-05-24T12:34:43.412Z,12.63
2023-05-24T12:37:13.233Z,9.10
2023-05-24T12:39:43.444Z,16.88
2023-05-24T12:42:13.404Z,10.68
2023-05-24T12:44:41.213Z,7.15
2023-05-24T12:47:09.192Z,9.95
2023-05-24T12:49:37.152Z,10.30
2023-05-24T12:52:04.776Z,7.80
2023-05-24T12:54:32.217Z,11.30
2023-05-24T12:57:05.556Z,18.85
2023-05-24T12:59:34.028Z,7.95
2023-05-24T13:02:01.942Z,13.20
2023-05-24T13:04:31.952Z,5.97
2023-05-24T13:06:59.282Z,7.47
2023-05-24T13:09:27.050Z,5.68
2023-05-24T13:11:55.339Z,9.27
2023-05-24T13:14:22.802Z,6.93
2023-05-24T13:16:50.381Z,8.27
2023-05-24T13:19:17.807Z,7.13
2023-05-24T13:21:45.783Z,7.18
2023-05-24T13:24:16.221Z,8.32
2023-05-24T13:26:45.025Z,9.38
2023-05-24T13:31:43.262Z,5.90
2023-05-24T13:34:11.376Z,6.65
2023-05-24T13:36:39.205Z,10.38
2023-05-24T13:41:38.927Z,10.93
2023-05-24T13:44:07.399Z,6.85
2023-05-24T13:46:36.617Z,14.45
2023-05-24T13:49:04.623Z,11.40
2023-05-24T13:51:32.230Z,13.25
2023-05-24T13:53:59.995Z,11.95
2023-05-24T13:56:32.975Z,9.63
2023-05-24T13:59:02.815Z,10.70
2023-05-24T14:01:31.334Z,8.45
2023-05-24T14:03:59.206Z,8.02
2023-05-24T14:06:26.316Z,10.60
2023-05-24T14:08:53.754Z,9.75
2023-05-24T14:11:22.460Z,10.25
2023-05-24T14:16:20.159Z,6.93
2023-05-24T14:18:49.363Z,9.27
2023-05-24T14:21:18.054Z,11.77
2023-05-24T14:23:45.218Z,8.00
2023-05-24T14:26:12.416Z,8.60
2023-05-24T14:28:39.650Z,8.65
2023-05-24T14:31:07.021Z,7.97
2023-05-24T14:33:34.178Z,12.98
2023-05-24T14:36:01.361Z,10.63
2023-05-24T14:38:28.661Z,11.45
2023-05-24T14:40:57.070Z,9.85
2023-05-24T14:43:24.702Z,10.50
2023-05-24T14:45:52.114Z,12.50
2023-05-24T14:48:19.412Z,9.63
2023-05-24T14:50:46.946Z,7.28
2023-05-24T14:53:14.204Z,7.18
2023-05-24T14:55:43.200Z,8.05
2023-05-24T14:58:14.779Z,9.35
2023-05-24T15:00:43.219Z,7.13
2023-05-24T15:03:12.857Z,5.22
2023-05-24T15:05:41.814Z,5.47
2023-05-24T15:08:11.082Z,6.32
2023-05-24T15:10:43.900Z,6.53
2023-05-24T15:15:38.449Z,6.05
2023-05-24T15:18:06.928Z,9.27
2023-05-24T15:20:41.820Z,7.78
2023-05-24T15:23:10.901Z,8.23
2023-05-24T15:25:38.529Z,10.02
2023-05-24T15:28:05.785Z,9.02
2023-05-24T15:30:33.010Z,8.32
2023-05-24T15:33:00.203Z,8.57
2023-05-24T15:35:27.354Z,7.30
2023-05-24T15:37:54.540Z,7.88
2023-05-24T15:40:24.638Z,8.02
2023-05-24T15:42:53.049Z,11.50
2023-05-24T15:45:20.440Z,9.30
2023-05-24T15:47:47.922Z,7.32
2023-05-24T15:50:15.232Z,7.97
2023-05-24T15:52:42.757Z,7.30
2023-05-24T15:55:10.212Z,9.20
2023-05-24T15:57:37.357Z,9.15
2023-05-24T16:00:04.888Z,16.63
2023-05-24T16:02:32.827Z,9.35
2023-05-24T16:05:00.764Z,9.25
2023-05-24T16:07:27.968Z,7.25
2023-05-24T16:09:55.218Z,6.60
2023-05-24T16:12:22.453Z,6.28
2023-05-24T16:14:49.946Z,13.60
2023-05-24T16:17:17.246Z,9.80
2023-05-24T16:19:47.268Z,10.63
2023-05-24T16:22:14.637Z,8.07
2023-05-24T16:24:42.042Z,9.00
2023-05-24T16:27:09.536Z,10.57
2023-05-24T16:29:37.295Z,9.25
2023-05-24T16:32:04.730Z,7.35
2023-05-24T16:34:36.595Z,12.32
2023-05-24T16:37:13.339Z,10.43
2023-05-24T16:39:40.695Z,10.13
2023-05-24T16:42:08.536Z,12.73
2023-05-24T16:44:35.834Z,12.30
2023-05-24T16:47:02.968Z,13.45
2023-05-24T16:49:30.117Z,12.27
2023-05-24T16:51:57.793Z,12.55
2023-05-24T16:54:24.964Z,12.50
2023-05-24T16:56:55.011Z,10.25
2023-05-24T16:59:22.797Z,9.02
2023-05-24T17:01:51.812Z,9.75
2023-05-24T17:04:20.227Z,11.95
2023-05-24T17:06:47.434Z,11.77
2023-05-24T17:09:14.742Z,11.00
2023-05-24T17:11:42.019Z,15.40
2023-05-24T17:14:09.645Z,8.50
2023-05-24T17:16:37.000Z,10.57
2023-05-24T17:19:04.364Z,13.93
2023-05-24T17:21:31.649Z,9.40
2023-05-24T17:23:59.866Z,12.25
2023-05-24T17:26:27.749Z,12.70
2023-05-24T17:28:54.886Z,9.40
2023-05-24T17:31:22.205Z,8.68
2023-05-24T17:33:49.513Z,10.07
2023-05-24T17:36:16.807Z,12.40
2023-05-24T17:38:44.191Z,12.30
2023-05-24T17:41:11.465Z,12.02
2023-05-24T17:43:40.262Z,11.82
2023-05-24T17:46:07.801Z,14.60
2023-05-24T17:48:36.055Z,12.38
2023-05-24T17:51:05.961Z,11.73
2023-05-24T17:53:35.021Z,8.13
2023-05-24T17:56:03.524Z,19.00
2023-05-24T17:58:33.018Z,12.77
2023-05-24T18:01:00.610Z,12.55
2023-05-24T18:03:28.041Z,10.85
2023-05-24T18:05:55.242Z,12.43
2023-05-24T18:08:22.689Z,17.88
2023-05-24T18:10:49.980Z,16.00
2023-05-24T18:13:17.186Z,12.55
2023-05-24T18:15:44.827Z,15.73
2023-05-24T18:18:12.293Z,17.23
2023-05-24T18:20:39.772Z,28.10
2023-05-24T18:23:07.131Z,17.25
2023-05-24T18:25:34.757Z,17.45
2023-05-24T18:28:02.884Z,17.98
2023-05-24T18:30:30.221Z,16.20
2023-05-24T18:33:07.041Z,13.38
2023-05-24T18:35:35.342Z,12.35
2023-05-24T18:38:02.586Z,16.65
2023-05-24T18:40:29.775Z,9.75
2023-05-24T18:42:57.165Z,14.00
2023-05-24T18:45:24.302Z,17.35
2023-05-24T18:47:54.274Z,15.25
2023-05-24T18:50:23.505Z,17.60
2023-05-24T18:52:51.047Z,17.40
2023-05-24T18:55:37.170Z,18.80
2023-05-24T18:58:04.285Z,22.20
2023-05-24T19:00:31.511Z,16.52
2023-05-24T19:02:58.803Z,10.70
2023-05-24T19:05:44.766Z,14.20
2023-05-24T19:08:31.124Z,13.85
2023-05-24T19:10:58.430Z,17.58
2023-05-24T19:13:44.052Z,15.20
2023-05-24T19:16:17.514Z,16.25
2023-05-24T19:18:45.818Z,15.63
2023-05-24T19:21:13.156Z,15.25
2023-05-24T19:23:40.833Z,13.75
2023-05-24T19:26:08.184Z,13.35
2023-05-24T19:28:37.911Z,18.73
2023-05-24T19:31:05.116Z,19.38
2023-05-24T19:33:32.576Z,18.15
2023-05-24T19:35:59.937Z,15.40
2023-05-24T19:38:27.250Z,16.85
2023-05-24T19:40:54.455Z,17.95
2023-05-24T19:43:21.874Z,13.55
2023-05-24T19:45:51.923Z,18.73
2023-05-24T19:48:37.852Z,16.08
2023-05-24T19:51:05.276Z,17.67
2023-05-24T19:53:32.418Z,14.95
2023-05-24T19:55:59.549Z,16.55
2023-05-24T19:58:26.741Z,16.98
2023-05-24T20:00:53.935Z,13.38
2023-05-24T20:03:21.156Z,15.88
2023-05-24T20:05:48.412Z,16.38
2023-05-24T20:08:17.399Z,15.13
2023-05-24T20:10:45.717Z,18.33
2023-05-24T20:13:13.266Z,19.73
2023-05-24T20:15:41.104Z,22.80
2023-05-24T20:18:08.620Z,23.85
2023-05-24T20:20:36.027Z,27.63
2023-05-24T20:23:03.233Z,24.25
2023-05-24T20:25:30.614Z,21.88
2023-05-24T20:27:57.788Z,23.77
2023-05-24T20:30:25.260Z,20.60
2023-05-24T20:32:52.825Z,20.63
2023-05-24T20:35:20.073Z,24.27
2023-05-24T20:37:47.320Z,18.52
2023-05-24T20:40:23.293Z,20.17
2023-05-24T20:42:50.824Z,18.17
2023-05-24T20:45:19.297Z,23.67
2023-05-24T20:47:46.496Z,28.15
2023-05-24T20:50:15.090Z,30.45
2023-05-24T20:52:42.276Z,28.48
2023-05-24T20:55:09.660Z,24.00
2023-05-24T20:57:37.057Z,28.60
2023-05-24T21:00:05.349Z,27.90
2023-05-24T21:02:35.229Z,20.60
2023-05-24T21:05:02.589Z,24.38
2023-05-24T21:07:31.562Z,26.92
2023-05-24T21:09:59.230Z,26.58
2023-05-24T21:12:26.422Z,30.48
2023-05-24T21:14:56.678Z,28.38
2023-05-24T21:17:23.842Z,19.95
2023-05-24T21:19:51.025Z,19.00
2023-05-24T21:22:18.424Z,28.05
2023-05-24T21:24:45.607Z,23.38
2023-05-24T21:27:13.090Z,21.58
2023-05-24T21:29:41.886Z,24.20
2023-05-24T21:32:09.143Z,23.20
2023-05-24T21:34:36.710Z,22.20
2023-05-24T21:37:05.161Z,19.35
2023-05-24T21:39:32.827Z,22.10
2023-05-24T21:41:59.974Z,19.45
2023-05-24T21:44:27.125Z,20.15
2023-05-24T21:46:54.462Z,23.02
2023-05-24T21:49:21.939Z,23.35
2023-05-24T21:51:49.327Z,25.48
2023-05-24T21:54:16.653Z,24.42
2023-05-24T21:56:43.868Z,25.80
2023-05-24T21:59:11.049Z,18.20
2023-05-24T22:01:38.335Z,26.55
2023-05-24T22:04:05.960Z,22.77
2023-05-24T22:06:33.162Z,23.42
2023-05-24T22:09:02.135Z,23.38
2023-05-24T22:11:29.738Z,23.80
2023-05-24T22:13:56.913Z,23.15
2023-05-24T22:16:24.392Z,24.77
2023-05-24T22:18:54.313Z,26.45
2023-05-24T22:21:22.923Z,23.80
2023-05-24T22:23:52.094Z,24.08
2023-05-24T22:26:19.576Z,27.02
2023-05-24T22:28:53.986Z,27.27
2023-05-24T22:31:22.667Z,23.45
2023-05-24T22:33:50.182Z,23.00
2023-05-24T22:36:17.378Z,22.48
2023-05-24T22:38:45.450Z,23.90
2023-05-24T22:41:13.082Z,18.60
2023-05-24T22:43:40.287Z,18.13
2023-05-24T22:46:09.951Z,22.50
2023-05-24T22:48:37.819Z,18.13
2023-05-24T22:51:05.167Z,19.25
2023-05-24T22:53:32.448Z,20.45
2023-05-24T22:55:59.725Z,20.42
2023-05-24T22:58:26.815Z,19.27
2023-05-24T23:00:54.084Z,22.98
2023-05-24T23:03:22.079Z,18.80
2023-05-24T23:05:49.393Z,21.15
2023-05-24T23:08:17.628Z,21.30
2023-05-24T23:10:46.957Z,25.90
2023-05-24T23:13:16.767Z,28.35
2023-05-24T23:15:45.198Z,25.17
2023-05-24T23:18:16.077Z,30.15
2023-05-24T23:20:44.670Z,27.40
2023-05-24T23:23:12.441Z,28.33
2023-05-24T23:25:40.039Z,29.30
2023-05-24T23:28:07.362Z,24.27
2023-05-24T23:30:34.652Z,21.75
2023-05-24T23:33:01.842Z,24.80
2023-05-24T23:35:28.966Z,22.65
2023-05-24T23:37:56.100Z,23.65
2023-05-24T23:40:23.479Z,21.63
2023-05-24T23:42:50.717Z,22.73
2023-05-24T23:45:18.003Z,24.00
2023-05-24T23:47:45.857Z,26.65
2023-05-24T23:50:17.488Z,25.80
2023-05-24T23:52:46.421Z,25.83
2023-05-24T23:55:13.756Z,22.83
2023-05-24T23:57:42.200Z,29.40
